Time;durP1;ratioP1;P1;durP2;ratioP2;P2;SDS_P1;SDS_P2;PMS_P1;PMS_P2;Temp;Humidity;BMP_temperature;BMP_pressure;BME280_temperature;BME280_humidity;BME280_pressure;Samples;Min_cycle;Max_cycle;Signal;HPM_P1;HPM_P2
2024/01/28 00:00:34;;;;;;;;;;;;;;;1.37;67.25;99822.28;5066482;28;19925;-56
2024/01/28 00:03:22;;;;;;;;;;;;;;;1.56;66.92;99821.47;5062890;28;19968;-57
2024/01/28 00:06:10;;;;;;;;;;;;;;;1.52;66.93;99829.09;5067483;28;19935;-56
2024/01/28 00:08:59;;;;;;;;;;;;;;;1.55;66.39;99827.88;5059648;28;20377;-57
2024/01/28 00:11:49;;;;;;;;;;;;;;;1.46;67.14;99821.06;5069227;28;19925;-56
2024/01/28 00:14:37;;;;;;;;;;;;;;;1.57;66.77;99821.25;5063838;28;19973;-56
2024/01/28 00:17:25;;;;;;;;;;;;;;;1.71;66.29;99807.88;5069288;28;19931;-56
2024/01/28 00:20:13;;;;;;;;;;;;;;;1.55;66.65;99807.25;5063232;28;19925;-56
2024/01/28 00:23:02;;;;;;;;;;;;;;;1.45;66.86;99803.34;5070199;28;19924;-56
2024/01/28 00:25:52;;;;;;;;;;;;;;;1.41;66.99;99796.75;5071898;28;19924;-56
2024/01/28 00:28:40;;;;;;;;;;;;;;;1.33;67.14;99796.94;5058317;28;20087;-56
2024/01/28 00:31:28;;;;;;;;;;;;;;;1.36;67.10;99791.19;5064888;28;20597;-57
2024/01/28 00:34:16;;;;;;;;;;;;;;;1.34;67.00;99796.75;5067152;28;19985;-56
2024/01/28 00:37:04;;;;;;;;;;;;;;;1.27;67.73;99793.22;5060611;28;20023;-56
2024/01/28 00:39:52;;;;;;;;;;;;;;;1.20;67.62;99795.06;5070111;28;19925;-56
2024/01/28 00:42:42;;;;;;;;;;;;;;;1.22;67.72;99796.50;5069052;28;19939;-56
2024/01/28 00:45:31;;;;;;;;;;;;;;;1.26;67.35;99791.56;5068323;28;19928;-56
2024/01/28 00:48:19;;;;;;;;;;;;;;;1.31;67.41;99786.44;5070698;28;20301;-56
2024/01/28 00:51:07;;;;;;;;;;;;;;;1.27;67.41;99793.22;5073600;28;20407;-56
2024/01/28 00:53:55;;;;;;;;;;;;;;;1.33;67.63;99789.72;5070058;28;20455;-57
2024/01/28 00:56:43;;;;;;;;;;;;;;;1.34;67.62;99786.03;5070507;28;20430;-59
2024/01/28 00:59:32;;;;;;;;;;;;;;;1.24;67.88;99793.66;5072291;28;19981;-56
2024/01/28 01:02:21;;;;;;;;;;;;;;;1.25;67.71;99785.41;5071205;28;20045;-56
2024/01/28 01:05:09;;;;;;;;;;;;;;;1.22;67.83;99780.44;5071242;28;19960;-56
2024/01/28 01:07:57;;;;;;;;;;;;;;;1.31;67.72;99778.41;5066460;28;19924;-56
2024/01/28 01:10:45;;;;;;;;;;;;;;;1.41;67.62;99784.16;5078366;28;20070;-56
2024/01/28 01:13:35;;;;;;;;;;;;;;;1.36;67.35;99775.09;5068227;28;19924;-56
2024/01/28 01:16:24;;;;;;;;;;;;;;;1.28;67.57;99768.94;5071007;28;20003;-56
2024/01/28 01:19:12;;;;;;;;;;;;;;;1.27;67.89;99767.25;5066271;28;19959;-56
2024/01/28 01:22:02;;;;;;;;;;;;;;;1.25;67.46;99769.34;5072211;28;20154;-56
2024/01/28 01:24:50;;;;;;;;;;;;;;;1.29;67.34;99769.75;5064633;28;19924;-56
2024/01/28 01:27:38;;;;;;;;;;;;;;;1.17;67.94;99769.56;5066233;28;19925;-59
2024/01/28 01:30:26;;;;;;;;;;;;;;;1.19;67.55;99763.97;5065730;28;19924;-56
2024/01/28 01:33:19;;;;;;;;;;;;;;;1.31;67.15;99759.66;5065774;28;19977;-56
2024/01/28 01:36:07;;;;;;;;;;;;;;;1.29;67.31;99754.50;5067059;28;19969;-56
2024/01/28 01:38:56;;;;;;;;;;;;;;;1.04;67.23;99751.59;5076344;28;20023;-56
2024/01/28 01:41:44;;;;;;;;;;;;;;;1.05;67.62;99747.91;5060589;28;19964;-57
2024/01/28 01:44:35;;;;;;;;;;;;;;;0.93;67.62;99741.50;5068005;28;19924;-56
2024/01/28 01:47:23;;;;;;;;;;;;;;;0.90;67.94;99739.22;5070491;28;19924;-57
2024/01/28 01:50:13;;;;;;;;;;;;;;;0.98;67.99;99739.03;5068406;28;19983;-56
2024/01/28 01:53:01;;;;;;;;;;;;;;;1.10;67.24;99733.91;5075025;28;20032;-56
2024/01/28 01:55:50;;;;;;;;;;;;;;;0.98;68.01;99740.91;5077589;28;19924;-57
2024/01/28 01:58:38;;;;;;;;;;;;;;;1.00;67.77;99745.00;5074701;28;20296;-57
2024/01/28 02:01:27;;;;;;;;;;;;;;;1.00;67.49;99745.00;5069075;28;19940;-56
2024/01/28 02:04:15;;;;;;;;;;;;;;;1.12;67.35;99750.59;5067518;28;19931;-56
2024/01/28 02:07:04;;;;;;;;;;;;;;;1.17;66.94;99741.94;5063419;28;20496;-57
2024/01/28 02:09:52;;;;;;;;;;;;;;;1.13;66.69;99749.56;5064937;28;19974;-58
2024/01/28 02:12:40;;;;;;;;;;;;;;;1.17;66.79;99744.59;5062534;28;20010;-57
2024/01/28 02:15:28;;;;;;;;;;;;;;;1.18;66.76;99746.28;5075053;28;19950;-60
2024/01/28 02:18:16;;;;;;;;;;;;;;;1.22;66.28;99747.50;5056056;28;19932;-56
2024/01/28 02:21:05;;;;;;;;;;;;;;;1.20;66.74;99734.31;5069669;28;19924;-57
2024/01/28 02:23:54;;;;;;;;;;;;;;;1.23;66.77;99738.47;5064630;28;19925;-56
2024/01/28 02:26:42;;;;;;;;;;;;;;;1.22;66.33;99731.44;5068797;28;19928;-57
2024/01/28 02:29:30;;;;;;;;;;;;;;;1.05;67.02;99734.50;5067974;28;19935;-56
2024/01/28 02:32:18;;;;;;;;;;;;;;;1.01;66.66;99727.09;5073431;28;19924;-56
2024/01/28 02:35:07;;;;;;;;;;;;;;;1.03;66.68;99725.06;5069828;28;20303;-59
2024/01/28 02:37:55;;;;;;;;;;;;;;;0.92;66.94;99720.31;5070026;28;20298;-56
2024/01/28 02:40:45;;;;;;;;;;;;;;;0.83;67.16;99726.88;5080622;28;19931;-56
2024/01/28 02:43:33;;;;;;;;;;;;;;;0.57;68.26;99722.28;5066388;28;19924;-56
2024/01/28 02:46:21;;;;;;;;;;;;;;;0.64;68.05;99729.31;5067422;28;19936;-56
2024/01/28 02:49:09;;;;;;;;;;;;;;;0.67;68.00;99722.72;5065740;28;20011;-56
2024/01/28 02:51:57;;;;;;;;;;;;;;;0.71;67.89;99729.34;5064941;28;19936;-60
2024/01/28 02:54:45;;;;;;;;;;;;;;;0.63;67.88;99721.47;5061074;28;19971;-56
2024/01/28 02:57:35;;;;;;;;;;;;;;;0.62;68.08;99714.50;5071772;28;19925;-56
2024/01/28 03:00:23;;;;;;;;;;;;;;;0.71;67.40;99713.28;5066033;28;19928;-57
2024/01/28 03:03:11;;;;;;;;;;;;;;;0.62;67.56;99715.31;5064501;28;20001;-56
2024/01/28 03:06:00;;;;;;;;;;;;;;;0.59;68.28;99715.72;5074863;28;21612;-56
2024/01/28 03:08:48;;;;;;;;;;;;;;;0.68;68.16;99717.16;5067284;28;19975;-59
2024/01/28 03:11:36;;;;;;;;;;;;;;;0.76;67.63;99705.47;5067805;28;19927;-56
2024/01/28 03:14:27;;;;;;;;;;;;;;;0.66;67.90;99703.19;5059192;28;20015;-56
2024/01/28 03:17:15;;;;;;;;;;;;;;;0.49;68.00;99705.41;5061629;28;19932;-57
2024/01/28 03:20:03;;;;;;;;;;;;;;;0.39;68.42;99709.50;5060637;28;19936;-58
2024/01/28 03:22:51;;;;;;;;;;;;;;;0.49;68.36;99710.75;5062800;28;19924;-56
2024/01/28 03:25:39;;;;;;;;;;;;;;;0.49;68.33;99715.28;5068507;28;19925;-56
2024/01/28 03:28:27;;;;;;;;;;;;;;;0.58;68.31;99718.59;5072790;28;19924;-57
2024/01/28 03:31:18;;;;;;;;;;;;;;;0.59;68.17;99725.63;5070679;28;19924;-56
2024/01/28 03:34:06;;;;;;;;;;;;;;;0.71;68.04;99729.34;5054666;28;19935;-57
2024/01/28 03:36:55;;;;;;;;;;;;;;;0.77;67.74;99728.50;5065136;28;20062;-56
2024/01/28 03:39:43;;;;;;;;;;;;;;;0.74;67.45;99731.59;5056735;28;19928;-56
2024/01/28 03:42:31;;;;;;;;;;;;;;;0.74;67.60;99728.91;5079217;28;19931;-56
2024/01/28 03:45:19;;;;;;;;;;;;;;;0.82;67.49;99736.75;5078271;28;19924;-56
2024/01/28 03:48:08;;;;;;;;;;;;;;;0.66;67.36;99729.13;5074558;28;19925;-58
2024/01/28 03:50:57;;;;;;;;;;;;;;;0.69;67.46;99728.69;5071855;28;19932;-56
2024/01/28 03:53:46;;;;;;;;;;;;;;;0.49;67.85;99729.47;5065020;28;19924;-56
2024/01/28 03:56:34;;;;;;;;;;;;;;;0.56;68.25;99731.34;5058832;28;19929;-56
2024/01/28 03:59:22;;;;;;;;;;;;;;;0.52;68.47;99725.56;5069465;28;20019;-56
2024/01/28 04:02:10;;;;;;;;;;;;;;;0.46;68.57;99724.53;5066683;28;19924;-57
2024/01/28 04:05:00;;;;;;;;;;;;;;;0.60;68.57;99719.22;5063087;28;19931;-57
2024/01/28 04:07:48;;;;;;;;;;;;;;;0.66;68.02;99723.75;5074030;28;19931;-57
2024/01/28 04:10:36;;;;;;;;;;;;;;;0.71;67.62;99718.63;5080724;28;20404;-56
2024/01/28 04:13:24;;;;;;;;;;;;;;;0.78;67.32;99719.47;5068688;28;20572;-57
2024/01/28 04:16:12;;;;;;;;;;;;;;;0.69;67.48;99715.31;5069825;28;19939;-57
2024/01/28 04:19:00;;;;;;;;;;;;;;;0.69;67.31;99721.53;5068934;28;19932;-58
2024/01/28 04:21:50;;;;;;;;;;;;;;;0.62;67.45;99725.19;5066601;28;19924;-56
2024/01/28 04:24:38;;;;;;;;;;;;;;;0.63;67.17;99730.31;5066614;28;20003;-56
2024/01/28 04:27:26;;;;;;;;;;;;;;;0.59;67.40;99725.63;5069850;28;20443;-56
2024/01/28 04:30:14;;;;;;;;;;;;;;;0.31;67.92;99718.50;5069570;28;19925;-57
2024/01/28 04:33:02;;;;;;;;;;;;;;;0.46;67.75;99719.19;5071718;28;19928;-56
2024/01/28 04:35:51;;;;;;;;;;;;;;;0.54;67.55;99722.72;5066789;28;20003;-56
2024/01/28 04:38:40;;;;;;;;;;;;;;;0.49;67.71;99729.47;5070142;28;20033;-56
2024/01/28 04:41:28;;;;;;;;;;;;;;;0.54;67.53;99728.06;5051059;28;19940;-56
2024/01/28 04:44:16;;;;;;;;;;;;;;;0.61;67.67;99723.53;5069564;28;19929;-57
2024/01/28 04:47:04;;;;;;;;;;;;;;;0.61;67.14;99726.22;5066400;28;19948;-59
2024/01/28 04:49:53;;;;;;;;;;;;;;;0.35;67.93;99713.59;5071622;28;19955;-55
2024/01/28 04:52:42;;;;;;;;;;;;;;;0.42;68.15;99719.78;5069988;28;19924;-56
2024/01/28 04:55:33;;;;;;;;;;;;;;;0.49;68.10;99717.97;5064458;28;19924;-56
2024/01/28 04:58:22;;;;;;;;;;;;;;;0.34;68.04;99718.13;5066609;28;20350;-56
2024/01/28 05:01:10;;;;;;;;;;;;;;;0.42;68.09;99730.47;5061036;28;19925;-56
2024/01/28 05:03:59;;;;;;;;;;;;;;;0.41;68.04;99724.31;5054292;28;19931;-57
2024/01/28 05:06:47;;;;;;;;;;;;;;;0.46;67.88;99721.03;5068102;28;19924;-59
2024/01/28 05:09:36;;;;;;;;;;;;;;;0.40;67.89;99714.63;5072220;28;19928;-56
2024/01/28 05:12:26;;;;;;;;;;;;;;;0.46;68.21;99716.50;5073213;28;19934;-57
2024/01/28 05:15:16;;;;;;;;;;;;;;;0.85;67.08;99724.81;5072774;28;19928;-56
2024/01/28 05:18:05;;;;;;;;;;;;;;;0.65;67.42;99722.13;5067444;28;20297;-56
2024/01/28 05:20:53;;;;;;;;;;;;;;;0.84;66.97;99728.53;5066673;28;19936;-56
2024/01/28 05:23:41;;;;;;;;;;;;;;;0.84;66.72;99723.16;5070917;28;19969;-56
2024/01/28 05:26:31;;;;;;;;;;;;;;;0.91;66.74;99726.69;5070041;28;19924;-56
2024/01/28 05:29:20;;;;;;;;;;;;;;;1.15;65.89;99722.59;5074380;28;19937;-56
2024/01/28 05:32:09;;;;;;;;;;;;;;;1.17;65.76;99728.53;5067755;28;19935;-57
2024/01/28 05:34:57;;;;;;;;;;;;;;;1.14;65.14;99727.13;5083292;28;20420;-56
2024/01/28 05:37:45;;;;;;;;;;;;;;;1.12;65.30;99725.66;5071573;28;19925;-56
2024/01/28 05:40:33;;;;;;;;;;;;;;;1.14;65.72;99718.25;5081279;28;19925;-56
2024/01/28 05:43:22;;;;;;;;;;;;;;;1.10;65.66;99717.03;5067001;28;20337;-56
2024/01/28 05:46:11;;;;;;;;;;;;;;;1.17;65.48;99712.47;5063964;28;19931;-59
2024/01/28 05:48:59;;;;;;;;;;;;;;;1.09;65.40;99720.72;5064514;28;19977;-57
2024/01/28 05:51:48;;;;;;;;;;;;;;;1.11;65.33;99721.34;5061239;28;19924;-57
2024/01/28 05:54:41;;;;;;;;;;;;;;;0.94;65.85;99721.75;5059427;28;19935;-56
2024/01/28 05:57:29;;;;;;;;;;;;;;;0.94;65.92;99723.59;5068750;28;19931;-57
2024/01/28 06:00:18;;;;;;;;;;;;;;;0.89;66.01;99726.88;5057225;28;20358;-57
2024/01/28 06:03:07;;;;;;;;;;;;;;;0.99;65.75;99724.63;5058028;28;19974;-57
2024/01/28 06:05:56;;;;;;;;;;;;;;;1.05;65.21;99721.13;5062298;28;19933;-56
2024/01/28 06:08:44;;;;;;;;;;;;;;;0.98;65.69;99717.63;5063832;28;20362;-56
2024/01/28 06:11:31;;;;;;;;;;;;;;;0.86;65.67;99716.59;5084107;28;20275;-56
2024/01/28 06:14:20;;;;;;;;;;;;;;;0.85;66.13;99722.94;5061607;28;20052;-58
2024/01/28 06:17:09;;;;;;;;;;;;;;;0.90;65.45;99711.66;5068886;28;20351;-56
2024/01/28 06:19:58;;;;;;;;;;;;;;;0.85;66.24;99708.75;5071361;28;20007;-57
2024/01/28 06:22:46;;;;;;;;;;;;;;;0.90;66.31;99707.13;5068410;28;19924;-56
2024/01/28 06:25:36;;;;;;;;;;;;;;;0.90;66.10;99699.09;5072018;28;20053;-56
2024/01/28 06:28:24;;;;;;;;;;;;;;;1.05;65.83;99701.56;5067854;28;20011;-59
2024/01/28 06:31:12;;;;;;;;;;;;;;;1.19;65.75;99710.44;5070224;28;19931;-58
2024/01/28 06:34:00;;;;;;;;;;;;;;;1.13;65.07;99704.06;5068476;28;20404;-56
2024/01/28 06:36:51;;;;;;;;;;;;;;;1.09;65.73;99705.50;5057804;28;19924;-57
2024/01/28 06:39:39;;;;;;;;;;;;;;;1.11;65.24;99705.28;5064335;28;19924;-56
2024/01/28 06:42:28;;;;;;;;;;;;;;;1.14;65.49;99708.38;5069740;28;19928;-57
2024/01/28 06:45:16;;;;;;;;;;;;;;;1.08;65.39;99703.84;5076288;28;19932;-56
2024/01/28 06:48:04;;;;;;;;;;;;;;;1.09;65.37;99702.00;5071000;28;19932;-57
2024/01/28 06:50:53;;;;;;;;;;;;;;;1.09;65.21;99699.31;5060872;28;20015;-57
2024/01/28 06:53:44;;;;;;;;;;;;;;;1.11;65.23;99695.38;5063362;28;19924;-56
2024/01/28 06:56:32;;;;;;;;;;;;;;;1.03;65.77;99707.13;5069984;28;19960;-58
2024/01/28 06:59:20;;;;;;;;;;;;;;;1.00;65.80;99701.38;5068222;28;19932;-57
2024/01/28 07:02:08;;;;;;;;;;;;;;;1.13;65.36;99696.03;5064746;28;19924;-56
2024/01/28 07:04:57;;;;;;;;;;;;;;;1.03;65.92;99695.63;5063450;28;19998;-57
2024/01/28 07:07:45;;;;;;;;;;;;;;;1.12;65.86;99698.88;5065675;28;19928;-57
2024/01/28 07:10:34;;;;;;;;;;;;;;;1.39;65.35;99700.53;5071156;28;19928;-57
2024/01/28 07:13:22;;;;;;;;;;;;;;;1.34;64.84;99696.84;5068757;28;19931;-57
2024/01/28 07:16:12;;;;;;;;;;;;;;;1.57;64.82;99708.75;5072281;28;19928;-57
2024/01/28 07:19:02;;;;;;;;;;;;;;;1.60;64.10;99707.53;5076890;28;19931;-57
2024/01/28 07:21:51;;;;;;;;;;;;;;;1.58;64.06;99705.03;5065448;28;20015;-56
2024/01/28 07:24:40;;;;;;;;;;;;;;;1.56;64.39;99701.75;5065421;28;20332;-57
2024/01/28 07:27:29;;;;;;;;;;;;;;;1.69;63.77;99705.44;5063376;28;19929;-57
2024/01/28 07:30:18;;;;;;;;;;;;;;;1.78;63.71;99702.31;5077735;28;19928;-57
2024/01/28 07:33:08;;;;;;;;;;;;;;;1.92;63.18;99694.22;5071621;28;20030;-59
2024/01/28 07:35:56;;;;;;;;;;;;;;;2.03;62.88;99691.72;5062027;28;19944;-57
2024/01/28 07:38:44;;;;;;;;;;;;;;;2.08;62.55;99689.22;5084241;28;19924;-57
2024/01/28 07:41:34;;;;;;;;;;;;;;;2.08;62.63;99683.88;5071482;28;19928;-57
2024/01/28 07:44:23;;;;;;;;;;;;;;;1.93;62.82;99690.53;5076070;28;19928;-57
2024/01/28 07:47:13;;;;;;;;;;;;;;;2.01;63.06;99687.59;5075629;28;20304;-56
2024/01/28 07:50:01;;;;;;;;;;;;;;;1.97;62.70;99681.00;5056800;28;19932;-57
2024/01/28 07:52:49;;;;;;;;;;;;;;;2.05;63.30;99678.91;5065308;28;19925;-57
2024/01/28 07:55:37;;;;;;;;;;;;;;;2.10;63.18;99676.44;5065981;28;19929;-57
2024/01/28 07:58:25;;;;;;;;;;;;;;;1.96;63.61;99674.81;5068886;28;19924;-57
2024/01/28 08:01:14;;;;;;;;;;;;;;;2.09;63.47;99674.78;5081661;28;19924;-57
2024/01/28 08:04:02;;;;;;;;;;;;;;;2.32;63.14;99673.44;5065019;28;19924;-56
2024/01/28 08:06:50;;;;;;;;;;;;;;;2.34;62.70;99669.53;5051841;28;19924;-58
2024/01/28 08:09:38;;;;;;;;;;;;;;;2.52;62.18;99670.66;5064270;28;20433;-57
2024/01/28 08:12:27;;;;;;;;;;;;;;;2.32;63.03;99673.44;5051987;28;19933;-57
2024/01/28 08:15:15;;;;;;;;;;;;;;;2.34;63.09;99674.88;5064705;28;20060;-57
2024/01/28 08:18:05;;;;;;;;;;;;;;;2.54;62.61;99680.13;5067498;28;20408;-56
2024/01/28 08:20:53;;;;;;;;;;;;;;;2.50;62.61;99670.84;5068888;28;19924;-57
2024/01/28 08:23:40;;;;;;;;;;;;;;;2.69;62.59;99674.47;5065597;28;19925;-58
2024/01/28 08:26:31;;;;;;;;;;;;;;;2.75;62.27;99667.41;5067595;28;19971;-57
2024/01/28 08:29:19;;;;;;;;;;;;;;;2.87;62.55;99674.50;5068914;28;19934;-57
2024/01/28 08:32:07;;;;;;;;;;;;;;;2.89;62.21;99677.00;5059100;28;19974;-56
2024/01/28 08:34:57;;;;;;;;;;;;;;;3.00;61.57;99680.84;5067582;28;19925;-57
2024/01/28 08:37:45;;;;;;;;;;;;;;;2.98;61.79;99678.34;5070374;28;19924;-57
2024/01/28 08:40:33;;;;;;;;;;;;;;;3.09;61.74;99679.50;5067892;28;19925;-57
2024/01/28 08:43:21;;;;;;;;;;;;;;;3.05;61.73;99678.31;5070564;28;20374;-58
2024/01/28 08:46:09;;;;;;;;;;;;;;;3.07;61.53;99693.16;5066847;28;19925;-57
2024/01/28 08:48:57;;;;;;;;;;;;;;;3.17;61.88;99694.53;5067670;28;19929;-57
2024/01/28 08:51:47;;;;;;;;;;;;;;;3.29;61.88;99690.91;5062654;28;19924;-56
2024/01/28 08:54:36;;;;;;;;;;;;;;;3.49;61.34;99689.91;5064734;28;20478;-57
2024/01/28 08:57:24;;;;;;;;;;;;;;;3.60;60.83;99681.94;5069377;28;19932;-56
2024/01/28 09:00:13;;;;;;;;;;;;;;;3.68;60.73;99683.53;5074035;28;19925;-59
2024/01/28 09:03:01;;;;;;;;;;;;;;;3.72;60.46;99686.56;5061934;28;19928;-58
2024/01/28 09:05:49;;;;;;;;;;;;;;;3.78;60.87;99685.69;5072351;28;19924;-57
2024/01/28 09:08:39;;;;;;;;;;;;;;;3.86;60.79;99685.41;5075232;28;19937;-57
2024/01/28 09:11:27;;;;;;;;;;;;;;;3.98;60.19;99683.59;5065194;28;19979;-57
2024/01/28 09:14:15;;;;;;;;;;;;;;;4.04;59.89;99688.06;5071987;28;20397;-57
2024/01/28 09:17:04;;;;;;;;;;;;;;;4.12;60.18;99684.28;5067430;28;20010;-57
2024/01/28 09:19:52;;;;;;;;;;;;;;;4.05;60.01;99684.34;5071528;28;20003;-57
2024/01/28 09:22:41;;;;;;;;;;;;;;;4.13;60.20;99686.72;5071028;28;20058;-58
2024/01/28 09:25:32;;;;;;;;;;;;;;;4.11;60.08;99688.84;5070131;28;19924;-57
2024/01/28 09:28:20;;;;;;;;;;;;;;;4.33;59.94;99688.34;5071690;28;19974;-57
2024/01/28 09:31:09;;;;;;;;;;;;;;;4.53;59.33;99685.38;5070762;28;19931;-58
2024/01/28 09:33:57;;;;;;;;;;;;;;;4.55;59.28;99678.72;5069024;28;19932;-57
2024/01/28 09:36:45;;;;;;;;;;;;;;;4.57;59.63;99690.06;5064391;28;19934;-58
2024/01/28 09:39:34;;;;;;;;;;;;;;;4.78;59.07;99688.75;5070910;28;20378;-57
2024/01/28 09:42:24;;;;;;;;;;;;;;;4.80;59.09;99685.84;5061989;28;19947;-57
2024/01/28 09:45:12;;;;;;;;;;;;;;;4.85;58.78;99683.28;5071823;28;19932;-57
2024/01/28 09:48:01;;;;;;;;;;;;;;;4.92;58.96;99684.81;5063110;28;19932;-57
2024/01/28 09:50:49;;;;;;;;;;;;;;;5.04;58.69;99686.69;5051173;28;19924;-57
2024/01/28 09:53:41;;;;;;;;;;;;;;;5.14;58.60;99682.38;5067363;28;20374;-57
2024/01/28 09:56:29;;;;;;;;;;;;;;;5.13;58.32;99680.75;5070505;28;19924;-57
2024/01/28 09:59:19;;;;;;;;;;;;;;;5.29;57.92;99689.19;5060305;28;20020;-57
2024/01/28 10:02:07;;;;;;;;;;;;;;;5.41;57.21;99684.63;5068019;28;19925;-57
2024/01/28 10:04:55;;;;;;;;;;;;;;;5.40;57.48;99683.00;5070470;28;20309;-57
2024/01/28 10:07:43;;;;;;;;;;;;;;;5.49;57.36;99685.09;5073157;28;21107;-57
2024/01/28 10:10:33;;;;;;;;;;;;;;;5.57;56.98;99686.63;5064026;28;19967;-57
2024/01/28 10:13:22;;;;;;;;;;;;;;;5.68;56.44;99688.47;5061944;28;19979;-57
2024/01/28 10:16:11;;;;;;;;;;;;;;;5.66;55.98;99679.81;5068702;28;19924;-57
2024/01/28 10:19:00;;;;;;;;;;;;;;;5.82;56.15;99682.84;5075587;28;19928;-57
2024/01/28 10:21:48;;;;;;;;;;;;;;;5.84;55.78;99681.56;5073427;28;20549;-57
2024/01/28 10:24:41;;;;;;;;;;;;;;;6.11;55.10;99676.47;5066222;28;19934;-57
2024/01/28 10:27:29;;;;;;;;;;;;;;;6.11;54.15;99665.69;5062348;28;20293;-57
2024/01/28 10:30:18;;;;;;;;;;;;;;;6.47;53.23;99663.69;5068913;28;20352;-57
2024/01/28 10:33:08;;;;;;;;;;;;;;;6.51;52.55;99664.84;5074228;28;20398;-57
2024/01/28 10:35:59;;;;;;;;;;;;;;;6.53;52.56;99665.41;5063119;28;19929;-57
2024/01/28 10:38:47;;;;;;;;;;;;;;;6.62;51.42;99666.69;5063832;28;19931;-58
2024/01/28 10:41:35;;;;;;;;;;;;;;;6.63;50.08;99660.22;5071538;28;19925;-58
2024/01/28 10:44:24;;;;;;;;;;;;;;;6.80;51.17;99674.56;5066858;28;20420;-57
2024/01/28 10:47:12;;;;;;;;;;;;;;;6.88;50.02;99669.84;5063621;28;19932;-58
2024/01/28 10:50:02;;;;;;;;;;;;;;;6.99;50.40;99666.25;5063640;28;19924;-57
2024/01/28 10:52:50;;;;;;;;;;;;;;;7.14;50.02;99668.34;5068890;28;20381;-58
2024/01/28 10:55:38;;;;;;;;;;;;;;;7.46;48.62;99655.91;5068718;28;20023;-57
2024/01/28 10:58:26;;;;;;;;;;;;;;;7.34;48.78;99650.56;5069775;28;19924;-57
2024/01/28 11:01:14;;;;;;;;;;;;;;;7.41;49.14;99646.91;5071600;28;19950;-57
2024/01/28 11:04:03;;;;;;;;;;;;;;;7.52;47.88;99643.28;5066447;28;19947;-56
2024/01/28 11:06:53;;;;;;;;;;;;;;;7.61;47.20;99641.75;5066099;28;19925;-56
2024/01/28 11:09:41;;;;;;;;;;;;;;;7.71;46.67;99630.25;5066583;28;19931;-57
2024/01/28 11:12:29;;;;;;;;;;;;;;;7.81;46.33;99625.81;5061335;28;19936;-57
2024/01/28 11:15:19;;;;;;;;;;;;;;;7.98;45.33;99624.91;5063181;28;19953;-58
2024/01/28 11:18:09;;;;;;;;;;;;;;;7.98;45.65;99628.44;5065791;28;19924;-57
2024/01/28 11:20:57;;;;;;;;;;;;;;;8.15;44.90;99620.28;5059787;28;20302;-57
2024/01/28 11:23:47;;;;;;;;;;;;;;;8.11;44.03;99609.13;5064231;28;19924;-57
2024/01/28 11:26:36;;;;;;;;;;;;;;;8.10;43.19;99610.19;5063696;28;19931;-57
2024/01/28 11:29:31;;;;;;;;;;;;;;;8.16;43.57;99599.44;5059541;28;19925;-57
2024/01/28 11:32:19;;;;;;;;;;;;;;;8.25;43.55;99600.59;5066869;28;19964;-58
2024/01/28 11:35:08;;;;;;;;;;;;;;;8.37;43.46;99604.03;5064850;28;20791;-58
2024/01/28 11:37:56;;;;;;;;;;;;;;;8.23;43.15;99598.16;5062631;28;20562;-58
2024/01/28 11:40:48;;;;;;;;;;;;;;;8.49;41.60;99603.88;5060424;28;20062;-58
2024/01/28 11:43:36;;;;;;;;;;;;;;;8.54;41.99;99599.31;5062680;28;20011;-58
2024/01/28 11:46:24;;;;;;;;;;;;;;;8.55;41.72;99598.22;5063477;28;19924;-57
2024/01/28 11:49:12;;;;;;;;;;;;;;;8.54;41.36;99587.66;5065855;28;19924;-58
2024/01/28 11:52:00;;;;;;;;;;;;;;;8.79;43.46;99593.31;5060819;28;19942;-60
2024/01/28 11:54:48;;;;;;;;;;;;;;;8.80;41.43;99581.38;5061694;28;19935;-57
2024/01/28 11:57:45;;;;;;;;;;;;;;;8.89;40.75;99579.00;5059476;28;19935;-58
2024/01/28 12:00:33;;;;;;;;;;;;;;;9.02;39.86;99580.47;5064720;28;19958;-58
2024/01/28 12:03:22;;;;;;;;;;;;;;;9.06;40.03;99570.75;5059606;28;19924;-58
2024/01/28 12:06:10;;;;;;;;;;;;;;;9.18;40.08;99565.94;5069409;28;19978;-58
2024/01/28 12:08:59;;;;;;;;;;;;;;;9.18;39.63;99565.94;5054102;28;19924;-57
2024/01/28 12:11:47;;;;;;;;;;;;;;;9.31;38.37;99567.34;5061449;28;20492;-59
2024/01/28 12:14:37;;;;;;;;;;;;;;;9.31;37.66;99560.03;5068686;28;19971;-58
2024/01/28 12:17:25;;;;;;;;;;;;;;;9.31;37.84;99557.31;5069904;28;19924;-57
2024/01/28 12:20:21;;;;;;;;;;;;;;;9.42;37.06;99555.47;5066094;28;19939;-58
2024/01/28 12:23:09;;;;;;;;;;;;;;;9.44;37.81;99550.63;5069023;28;20397;-57
2024/01/28 12:25:58;;;;;;;;;;;;;;;9.61;37.14;99547.72;5070210;28;20420;-57
2024/01/28 12:28:47;;;;;;;;;;;;;;;9.64;36.66;99548.00;5059181;28;20001;-57
2024/01/28 12:31:36;;;;;;;;;;;;;;;9.61;36.32;99550.44;5068648;28;20289;-57
2024/01/28 12:34:26;;;;;;;;;;;;;;;9.69;35.93;99544.47;5081982;28;20369;-58
2024/01/28 12:37:15;;;;;;;;;;;;;;;9.63;36.19;99540.94;5066789;28;19928;-57
2024/01/28 12:40:03;;;;;;;;;;;;;;;9.79;35.90;99541.81;5068720;22;19928;-89
2024/01/28 12:42:54;;;;;;;;;;;;;;;9.76;36.03;99536.94;5042457;28;20027;-90
2024/01/28 12:45:42;;;;;;;;;;;;;;;9.93;35.73;99532.09;5055075;28;19925;-89
2024/01/28 12:48:32;;;;;;;;;;;;;;;9.96;35.87;99538.91;5046346;28;19928;-89
2024/01/28 12:51:20;;;;;;;;;;;;;;;10.01;35.64;99536.16;5060064;28;20085;-90
2024/01/28 12:54:08;;;;;;;;;;;;;;;10.00;35.35;99525.59;5055645;28;19931;-89
2024/01/28 12:56:56;;;;;;;;;;;;;;;10.01;35.39;99516.34;5042310;28;19932;-90
2024/01/28 12:59:44;;;;;;;;;;;;;;;10.12;35.94;99518.00;5042292;28;19925;-90
2024/01/28 13:02:32;;;;;;;;;;;;;;;10.25;34.48;99501.22;5057213;28;20372;-89
2024/01/28 13:05:22;;;;;;;;;;;;;;;10.17;35.90;99509.84;5064871;28;19925;-89
2024/01/28 13:08:10;;;;;;;;;;;;;;;10.20;35.64;99506.63;5062244;28;19926;-90
2024/01/28 13:11:00;;;;;;;;;;;;;;;10.23;35.52;99500.66;5076685;28;19974;-89
2024/01/28 13:13:48;;;;;;;;;;;;;;;10.29;35.06;99507.75;5075490;28;20015;-89
2024/01/28 13:16:36;;;;;;;;;;;;;;;10.36;35.21;99505.56;5076032;28;19931;-89
2024/01/28 13:19:25;;;;;;;;;;;;;;;10.24;35.77;99502.31;5077845;28;19931;-89
2024/01/28 13:22:14;;;;;;;;;;;;;;;10.30;35.74;99500.41;5071971;28;19951;-89
2024/01/28 13:25:02;;;;;;;;;;;;;;;10.23;35.72;99487.09;5089914;28;19978;-89
2024/01/28 13:27:51;;;;;;;;;;;;;;;10.32;36.11;99488.19;5078047;28;19932;-90
2024/01/28 13:30:40;;;;;;;;;;;;;;;10.12;35.47;99485.41;5060307;28;19924;-89
2024/01/28 13:33:28;;;;;;;;;;;;;;;10.25;35.87;99484.13;5060424;28;19932;-89
2024/01/28 13:36:17;;;;;;;;;;;;;;;10.40;35.94;99484.94;5073634;28;20435;-89
2024/01/28 13:39:07;;;;;;;;;;;;;;;10.40;36.01;99486.84;5075674;28;19924;-89
2024/01/28 13:41:55;;;;;;;;;;;;;;;10.57;35.07;99481.13;5075076;28;19946;-90
2024/01/28 13:44:44;;;;;;;;;;;;;;;10.58;34.39;99478.13;5061240;28;20023;-89
2024/01/28 13:47:33;;;;;;;;;;;;;;;10.60;33.62;99480.56;5055382;28;20245;-89
2024/01/28 13:50:21;;;;;;;;;;;;;;;10.55;33.71;99478.69;5040073;28;20085;-90
2024/01/28 13:53:10;;;;;;;;;;;;;;;10.52;34.17;99476.50;5041456;28;19924;-89
2024/01/28 13:56:02;;;;;;;;;;;;;;;10.68;33.27;99482.75;5039491;28;19932;-89
2024/01/28 13:58:52;;;;;;;;;;;;;;;10.62;34.28;99471.06;5053104;28;19925;-89
2024/01/28 14:01:41;;;;;;;;;;;;;;;10.62;34.77;99478.41;5053418;28;19947;-89
2024/01/28 14:04:31;;;;;;;;;;;;;;;10.58;33.92;99472.69;5054394;28;20272;-89
2024/01/28 14:07:19;;;;;;;;;;;;;;;10.61;33.89;99466.72;5044714;28;19928;-90
2024/01/28 14:10:09;;;;;;;;;;;;;;;10.54;33.26;99463.44;5059612;28;19997;-91
2024/01/28 14:12:59;;;;;;;;;;;;;;;10.60;33.52;99472.41;5048492;28;19925;-90
2024/01/28 14:15:47;;;;;;;;;;;;;;;10.71;34.16;99471.34;5058743;28;19971;-89
2024/01/28 14:18:35;;;;;;;;;;;;;;;10.66;33.64;99474.06;5053377;28;19929;-93
2024/01/28 14:21:28;;;;;;;;;;;;;;;10.69;34.25;99476.22;5072488;28;20030;-87
2024/01/28 14:24:16;;;;;;;;;;;;;;;10.65;33.41;99481.41;5075877;28;19959;-88
2024/01/28 14:27:05;;;;;;;;;;;;;;;10.70;33.29;99472.41;5072128;28;19925;-84
2024/01/28 14:29:54;;;;;;;;;;;;;;;10.69;32.80;99476.22;5081118;28;20265;-81
2024/01/28 14:32:42;;;;;;;;;;;;;;;10.74;32.84;99481.66;5084804;28;19935;-84
2024/01/28 14:35:31;;;;;;;;;;;;;;;10.60;32.79;99469.69;5086279;28;19925;-81
2024/01/28 14:38:22;;;;;;;;;;;;;;;10.73;33.61;99474.59;5064743;28;20055;-80
2024/01/28 14:41:12;;;;;;;;;;;;;;;10.65;33.49;99467.81;5080757;28;19928;-85
2024/01/28 14:44:00;;;;;;;;;;;;;;;10.53;33.90;99461.00;5058634;28;19928;-88
2024/01/28 14:46:49;;;;;;;;;;;;;;;10.58;34.31;99461.00;5053655;28;20331;-89